createdAt,value
2022-11-02T00:00:19.909Z,99426.69
2022-11-02T00:02:46.611Z,99419.50
2022-11-02T00:05:13.936Z,99418.53
2022-11-02T00:07:41.206Z,99420.31
2022-11-02T00:10:09.090Z,99423.03
2022-11-02T00:12:37.151Z,99416.75
2022-11-02T00:15:05.430Z,99415.31
2022-11-02T00:17:32.900Z,99425.38
2022-11-02T00:19:59.805Z,99413.88
2022-11-02T00:22:26.908Z,99411.28
2022-11-02T00:24:53.664Z,99416.41
2022-11-02T00:27:20.261Z,99409.34
2022-11-02T00:29:48.179Z,99410.16
2022-11-02T00:32:14.675Z,99413.50
2022-11-02T00:34:41.224Z,99411.56
2022-11-02T00:37:07.714Z,99406.31
2022-11-02T00:39:34.235Z,99400.69
2022-11-02T00:42:00.743Z,99396.25
2022-11-02T00:44:27.263Z,99398.94
2022-11-02T00:46:55.202Z,99389.19
2022-11-02T00:49:21.733Z,99394.94
2022-11-02T00:51:48.370Z,99393.34
2022-11-02T00:54:14.870Z,99395.25
2022-11-02T00:56:41.531Z,99397.19
2022-11-02T00:59:08.043Z,99394.81
2022-11-02T01:01:34.703Z,99391.94
2022-11-02T01:04:02.925Z,99386.78
2022-11-02T01:06:29.475Z,99385.97
2022-11-02T01:08:56.028Z,99390.63
2022-11-02T01:11:23.973Z,99390.78
2022-11-02T01:13:52.537Z,99387.91
2022-11-02T01:16:19.332Z,99377.19
2022-11-02T01:18:46.025Z,99372.06
2022-11-02T01:21:13.881Z,99374.78
2022-11-02T01:23:40.403Z,99363.59
2022-11-02T01:26:09.387Z,99369.47
2022-11-02T01:28:36.686Z,99374.44
2022-11-02T01:31:03.743Z,99371.88
2022-11-02T01:33:30.262Z,99362.00
2022-11-02T01:35:56.813Z,99372.38
2022-11-02T01:38:25.252Z,99362.13
2022-11-02T01:40:51.830Z,99356.69
2022-11-02T01:43:23.395Z,99346.28
2022-11-02T01:45:53.427Z,99343.91
2022-11-02T01:48:25.530Z,99338.31
2022-11-02T01:50:52.253Z,99338.63
2022-11-02T01:53:18.963Z,99329.69
2022-11-02T01:55:46.960Z,99329.03
2022-11-02T01:58:13.520Z,99318.31
2022-11-02T02:00:40.445Z,99325.03
2022-11-02T02:03:09.949Z,99318.50
2022-11-02T02:05:41.177Z,99323.59
2022-11-02T02:08:08.794Z,99323.28
2022-11-02T02:10:36.091Z,99320.09
2022-11-02T02:13:06.070Z,99316.22
2022-11-02T02:15:41.333Z,99311.91
2022-11-02T02:18:13.631Z,99317.19
2022-11-02T02:20:57.048Z,99315.94
2022-11-02T02:24:06.820Z,99325.34
2022-11-02T02:26:59.236Z,99320.41
2022-11-02T02:29:33.466Z,99314.00
2022-11-02T02:32:06.200Z,99318.16
2022-11-02T02:34:37.384Z,99317.19
2022-11-02T02:37:07.232Z,99315.59
2022-11-02T02:39:43.240Z,99318.34
2022-11-02T02:42:18.514Z,99311.91
2022-11-02T02:44:53.565Z,99309.69
2022-11-02T02:47:23.543Z,99302.47
2022-11-02T02:49:53.666Z,99304.06
2022-11-02T02:52:23.826Z,99302.44
2022-11-02T02:54:52.293Z,99301.34
2022-11-02T02:57:22.174Z,99303.13
2022-11-02T02:59:50.038Z,99307.91
2022-11-02T03:02:20.605Z,99306.16
2022-11-02T03:04:47.226Z,99313.00
2022-11-02T03:07:19.282Z,99305.16
2022-11-02T03:09:50.798Z,99311.69
2022-11-02T03:12:26.858Z,99302.41
2022-11-02T03:15:07.482Z,99302.41
2022-11-02T03:17:45.288Z,99307.06
2022-11-02T03:20:21.739Z,99310.41
2022-11-02T03:22:55.695Z,99308.34
2022-11-02T03:25:28.780Z,99314.25
2022-11-02T03:28:00.882Z,99307.88
2022-11-02T03:30:36.890Z,99331.91
2022-11-02T03:33:07.894Z,99322.91
2022-11-02T03:35:39.010Z,99330.44
2022-11-02T03:38:13.252Z,99330.44
2022-11-02T03:40:43.928Z,99343.72
2022-11-02T03:43:12.783Z,99344.84
2022-11-02T03:45:44.184Z,99341.31
2022-11-02T03:48:13.655Z,99343.72
2022-11-02T03:50:44.505Z,99358.94
2022-11-02T03:53:18.660Z,99348.53
2022-11-02T03:55:50.864Z,99345.31
2022-11-02T03:58:17.398Z,99356.72
2022-11-02T04:00:49.933Z,99354.81
2022-11-02T04:03:18.247Z,99346.97
2022-11-02T04:05:44.765Z,99368.13
2022-11-02T04:08:14.963Z,99360.25
2022-11-02T04:10:41.486Z,99371.16
2022-11-02T04:13:08.657Z,99364.91
2022-11-02T04:15:35.368Z,99367.75
2022-11-02T04:18:03.563Z,99375.31
2022-11-02T04:20:30.393Z,99375.78
2022-11-02T04:22:56.879Z,99376.41
2022-11-02T04:25:23.514Z,99380.44
2022-11-02T04:27:51.414Z,99394.03
2022-11-02T04:30:20.545Z,99386.31
2022-11-02T04:32:48.762Z,99391.44
2022-11-02T04:35:16.722Z,99386.66
2022-11-02T04:37:43.867Z,99392.22
2022-11-02T04:40:11.623Z,99391.72
2022-11-02T04:42:38.243Z,99381.50
2022-11-02T04:45:05.358Z,99382.31
2022-11-02T04:47:31.892Z,99377.63
2022-11-02T04:49:58.384Z,99372.53
2022-11-02T04:52:26.323Z,99376.69
2022-11-02T04:54:52.845Z,99371.75
2022-11-02T04:57:19.434Z,99376.38
2022-11-02T04:59:46.095Z,99368.84
2022-11-02T05:02:12.750Z,99371.22
2022-11-02T05:04:39.509Z,99364.50
2022-11-02T05:07:06.013Z,99367.72
2022-11-02T05:09:34.106Z,99371.56
2022-11-02T05:12:00.605Z,99377.31
2022-11-02T05:14:27.336Z,99378.78
2022-11-02T05:16:53.879Z,99374.28
2022-11-02T05:19:20.534Z,99370.59
2022-11-02T05:21:47.091Z,99367.88
2022-11-02T05:24:13.638Z,99369.31
2022-11-02T05:26:41.643Z,99355.41
2022-11-02T05:29:09.459Z,99368.63
2022-11-02T05:31:36.011Z,99364.47
2022-11-02T05:34:02.699Z,99379.84
2022-11-02T05:36:29.210Z,99374.25
2022-11-02T05:38:56.102Z,99375.06
2022-11-02T05:41:22.950Z,99387.88
2022-11-02T05:43:50.803Z,99390.41
2022-11-02T05:46:17.325Z,99397.00
2022-11-02T05:48:43.809Z,99388.34
2022-11-02T05:51:11.077Z,99398.28
2022-11-02T05:53:37.590Z,99397.13
2022-11-02T05:56:05.943Z,99403.53
2022-11-02T05:58:33.022Z,99403.97
2022-11-02T06:01:02.263Z,99411.81
2022-11-02T06:03:29.565Z,99411.16
2022-11-02T06:05:56.729Z,99412.91
2022-11-02T06:08:23.251Z,99415.00
2022-11-02T06:10:49.791Z,99413.72
2022-11-02T06:13:16.362Z,99426.34
2022-11-02T06:15:43.014Z,99425.06
2022-11-02T06:18:10.975Z,99427.63
2022-11-02T06:20:37.497Z,99430.53
2022-11-02T06:23:04.294Z,99419.84
2022-11-02T06:25:31.374Z,99427.22
2022-11-02T06:27:58.679Z,99436.97
2022-11-02T06:30:25.641Z,99432.00
2022-11-02T06:32:53.747Z,99453.59
2022-11-02T06:35:22.353Z,99451.03
2022-11-02T06:37:48.939Z,99445.00
2022-11-02T06:40:15.972Z,99449.13
2022-11-02T06:42:45.140Z,99450.44
2022-11-02T06:45:17.272Z,99456.19
2022-11-02T06:47:43.801Z,99455.06
2022-11-02T06:50:10.360Z,99455.25
2022-11-02T06:52:42.411Z,99464.19
2022-11-02T06:55:09.328Z,99463.22
2022-11-02T06:57:36.589Z,99468.34
2022-11-02T07:00:03.782Z,99463.22
2022-11-02T07:02:30.607Z,99474.09
2022-11-02T07:04:57.459Z,99475.56
2022-11-02T07:07:24.014Z,99476.03
2022-11-02T07:09:51.885Z,99482.16
2022-11-02T07:12:22.866Z,99489.19
2022-11-02T07:14:49.775Z,99493.22
2022-11-02T07:17:16.486Z,99496.09
2022-11-02T07:19:43.088Z,99494.53
2022-11-02T07:22:09.643Z,99497.56
2022-11-02T07:24:36.166Z,99498.03
2022-11-02T07:27:04.068Z,99495.00
2022-11-02T07:29:30.636Z,99502.38
2022-11-02T07:31:57.260Z,99500.63
2022-11-02T07:34:23.825Z,99504.50
2022-11-02T07:36:50.349Z,99511.88
2022-11-02T07:39:16.907Z,99510.00
2022-11-02T07:41:46.670Z,99520.09
2022-11-02T07:44:17.302Z,99516.25
2022-11-02T07:46:43.813Z,99521.84
2022-11-02T07:49:10.338Z,99529.69
2022-11-02T07:51:36.974Z,99522.81
2022-11-02T07:54:03.637Z,99526.66
2022-11-02T07:56:30.260Z,99525.84
2022-11-02T07:58:56.896Z,99531.47
2022-11-02T08:01:24.953Z,99531.63
2022-11-02T08:03:51.551Z,99536.28
2022-11-02T08:06:18.108Z,99539.31
2022-11-02T08:08:44.635Z,99539.16
2022-11-02T08:11:11.377Z,99539.81
2022-11-02T08:13:38.274Z,99538.19
2022-11-02T08:16:05.279Z,99534.44
2022-11-02T08:18:33.275Z,99551.13
2022-11-02T08:21:00.000Z,99533.13
2022-11-02T08:23:27.085Z,99542.91
2022-11-02T08:25:54.904Z,99546.47
2022-11-02T08:28:23.874Z,99550.00
2022-11-02T08:30:50.576Z,99537.69
2022-11-02T08:33:19.119Z,99531.78
2022-11-02T08:35:48.057Z,99546.84
2022-11-02T08:38:15.198Z,99553.25
2022-11-02T08:40:42.264Z,99553.75
2022-11-02T08:43:11.032Z,99561.94
2022-11-02T08:46:13.937Z,99557.09
2022-11-02T08:48:27.183Z,99555.59
2022-11-02T08:50:55.112Z,99563.84
2022-11-02T08:53:21.838Z,99569.59
2022-11-02T08:55:48.430Z,99569.78
2022-11-02T08:58:14.968Z,99569.47
2022-11-02T09:00:41.496Z,99567.38
2022-11-02T09:03:09.820Z,99569.63
2022-11-02T09:05:38.460Z,99572.34
2022-11-02T09:08:09.577Z,99581.50
2022-11-02T09:10:36.839Z,99561.56
2022-11-02T09:13:06.529Z,99574.69
2022-11-02T09:15:35.555Z,99572.53
2022-11-02T09:18:02.675Z,99581.81
2022-11-02T09:20:29.559Z,99570.41
2022-11-02T09:22:56.077Z,99595.59
2022-11-02T09:25:24.147Z,99577.97
2022-11-02T09:27:55.649Z,99593.00
2022-11-02T09:30:22.944Z,99581.28
2022-11-02T09:32:54.061Z,99592.53
2022-11-02T09:35:20.868Z,99602.75
2022-11-02T09:37:50.122Z,99607.75
2022-11-02T09:40:21.373Z,99598.50
2022-11-02T09:43:01.198Z,99614.97
2022-11-02T09:45:29.173Z,99608.94
2022-11-02T09:50:54.248Z,99623.03
2022-11-02T09:53:30.024Z,99614.47
2022-11-02T09:56:00.245Z,99624.59
2022-11-02T09:58:34.185Z,99630.41
2022-11-02T10:01:08.836Z,99632.16
2022-11-02T10:03:47.999Z,99630.63
2022-11-02T10:06:19.467Z,99632.88
2022-11-02T10:08:57.089Z,99631.16
2022-11-02T10:11:38.886Z,99637.31
2022-11-02T10:14:12.516Z,99643.56
2022-11-02T10:16:47.211Z,99646.63
2022-11-02T10:19:17.459Z,99639.16
2022-11-02T10:21:47.547Z,99644.38
2022-11-02T10:24:24.968Z,99652.84
2022-11-02T10:26:56.079Z,99645.94
2022-11-02T10:29:37.872Z,99649.78
2022-11-02T10:32:04.959Z,99653.00
2022-11-02T10:34:33.889Z,99647.22
2022-11-02T10:37:15.079Z,99651.13
2022-11-02T10:39:49.558Z,99649.97
2022-11-02T10:42:37.174Z,99650.19
2022-11-02T10:45:20.900Z,99646.78
2022-11-02T10:47:57.596Z,99644.94
2022-11-02T10:50:42.906Z,99642.78
2022-11-02T10:53:39.341Z,99654.97
2022-11-02T10:56:07.395Z,99656.03
2022-11-02T10:58:36.661Z,99661.44
2022-11-02T11:01:09.652Z,99662.25
2022-11-02T11:03:53.745Z,99648.56
2022-11-02T11:06:20.570Z,99658.00
2022-11-02T11:08:48.508Z,99646.59
2022-11-02T11:11:19.513Z,99652.91
2022-11-02T11:16:44.830Z,99677.63
2022-11-02T11:19:38.547Z,99655.41
2022-11-02T11:22:25.208Z,99646.75
2022-11-02T11:24:51.870Z,99651.41
2022-11-02T11:27:20.190Z,99655.91
2022-11-02T11:29:49.891Z,99657.94
2022-11-02T11:32:22.024Z,99659.34
2022-11-02T11:35:02.428Z,99643.78
2022-11-02T11:37:29.800Z,99649.59
2022-11-02T11:40:00.563Z,99644.16
2022-11-02T11:42:31.092Z,99641.69
2022-11-02T11:45:01.493Z,99635.03
2022-11-02T11:47:32.234Z,99644.03
2022-11-02T11:50:15.542Z,99638.09
2022-11-02T11:52:44.002Z,99629.53
2022-11-02T11:55:23.344Z,99636.00
2022-11-02T11:58:05.729Z,99628.16
2022-11-02T12:00:33.064Z,99641.41
2022-11-02T12:03:05.710Z,99646.88
2022-11-02T12:05:50.838Z,99633.13
2022-11-02T12:08:31.215Z,99629.50
2022-11-02T12:11:18.604Z,99634.38
2022-11-02T12:14:00.253Z,99634.91
2022-11-02T12:16:42.190Z,99641.06
2022-11-02T12:19:22.007Z,99646.88
2022-11-02T12:22:01.125Z,99648.22
2022-11-02T12:24:52.276Z,99635.66
2022-11-02T12:27:27.662Z,99625.91
2022-11-02T12:30:08.606Z,99632.59
2022-11-02T12:32:47.949Z,99630.72
2022-11-02T12:35:34.283Z,99632.88
2022-11-02T12:38:16.386Z,99630.47
2022-11-02T12:40:54.719Z,99625.47
2022-11-02T12:43:38.588Z,99626.94
2022-11-02T12:46:16.577Z,99636.63
2022-11-02T12:48:53.759Z,99634.25
2022-11-02T12:51:26.761Z,99648.69
2022-11-02T12:53:57.553Z,99641.34
2022-11-02T12:56:29.388Z,99652.25
2022-11-02T12:58:56.238Z,99639.50
2022-11-02T13:01:27.819Z,99646.47
2022-11-02T13:04:00.852Z,99642.22
2022-11-02T13:06:35.574Z,99637.75
2022-11-02T13:11:35.342Z,99643.47
2022-11-02T13:14:05.676Z,99651.41
2022-11-02T13:16:37.733Z,99642.94
2022-11-02T13:19:05.375Z,99638.94
2022-11-02T13:21:43.672Z,99639.16
2022-11-02T13:24:15.845Z,99640.41
2022-11-02T13:26:43.868Z,99644.53
2022-11-02T13:29:16.768Z,99643.88
2022-11-02T13:31:48.807Z,99652.44
2022-11-02T13:34:19.682Z,99637.72
2022-11-02T13:36:49.225Z,99640.22
2022-11-02T13:39:22.470Z,99636.31
2022-11-02T13:42:19.093Z,99643.41
2022-11-02T13:45:15.368Z,99646.88
2022-11-02T13:48:05.460Z,99640.97
2022-11-02T13:50:39.428Z,99638.56
2022-11-02T13:53:14.912Z,99642.13
2022-11-02T13:55:45.955Z,99638.63
2022-11-02T13:58:23.625Z,99640.13
2022-11-02T14:00:51.811Z,99645.44
2022-11-02T14:03:22.901Z,99638.41
2022-11-02T14:05:52.965Z,99643.13
2022-11-02T14:08:28.480Z,99644.09
2022-11-02T14:11:26.296Z,99644.28
2022-11-02T14:14:18.384Z,99645.47
2022-11-02T14:16:56.176Z,99632.53
2022-11-02T14:19:25.570Z,99641.88
2022-11-02T14:22:11.056Z,99637.38
2022-11-02T14:25:20.327Z,99649.13
2022-11-02T14:27:48.338Z,99648.34
2022-11-02T14:30:43.334Z,99652.91
2022-11-02T14:33:19.902Z,99649.38
2022-11-02T14:35:54.241Z,99647.03
2022-11-02T14:38:36.814Z,99648.50
2022-11-02T14:41:23.474Z,99640.50
2022-11-02T14:44:12.943Z,99628.03
2022-11-02T14:46:52.011Z,99632.03
2022-11-02T14:49:21.779Z,99640.38
2022-11-02T14:52:03.693Z,99632.84
2022-11-02T14:54:34.679Z,99629.88
2022-11-02T14:57:05.238Z,99635.13
2022-11-02T14:59:36.392Z,99631.16
2022-11-02T15:02:18.918Z,99638.03
2022-11-02T15:04:48.694Z,99655.06
2022-11-02T15:07:20.460Z,99645.94
2022-11-02T15:09:55.476Z,99649.78
2022-11-02T15:12:31.266Z,99647.59
2022-11-02T15:15:24.875Z,99646.47
2022-11-02T15:18:00.297Z,99651.44
2022-11-02T15:20:29.909Z,99655.25
2022-11-02T15:23:29.866Z,99643.75
2022-11-02T15:25:58.719Z,99651.56
2022-11-02T15:28:29.364Z,99653.59
2022-11-02T15:31:02.703Z,99658.59
2022-11-02T15:33:36.478Z,99654.94
2022-11-02T15:36:05.388Z,99651.00
2022-11-02T15:38:38.409Z,99644.19
2022-11-02T15:41:18.027Z,99648.69
2022-11-02T15:44:04.731Z,99641.66
2022-11-02T15:46:43.216Z,99639.28
2022-11-02T15:49:26.226Z,99644.44
2022-11-02T15:52:00.674Z,99638.81
2022-11-02T15:54:47.269Z,99648.63
2022-11-02T15:57:28.120Z,99646.41
2022-11-02T16:00:14.800Z,99648.00
2022-11-02T16:02:45.756Z,99642.88
2022-11-02T16:05:21.806Z,99644.00
2022-11-02T16:08:09.621Z,99640.78
2022-11-02T16:10:36.489Z,99636.31
2022-11-02T16:13:13.856Z,99639.66
2022-11-02T16:15:40.822Z,99645.56
2022-11-02T16:18:25.560Z,99642.16
2022-11-02T16:20:57.315Z,99641.97
2022-11-02T16:23:26.625Z,99639.38
2022-11-02T16:25:55.409Z,99638.06
2022-11-02T16:28:23.874Z,99634.41
2022-11-02T16:31:01.619Z,99640.78
2022-11-02T16:33:32.604Z,99637.59
2022-11-02T16:35:59.982Z,99636.56
2022-11-02T16:38:27.133Z,99641.88
2022-11-02T16:40:53.937Z,99635.44
2022-11-02T16:43:21.054Z,99629.03
2022-11-02T16:45:50.435Z,99627.22
2022-11-02T16:48:21.485Z,99629.59
2022-11-02T16:51:03.480Z,99629.88
2022-11-02T16:53:32.325Z,99629.44
2022-11-02T16:56:13.800Z,99622.28
2022-11-02T16:58:46.110Z,99626.06
2022-11-02T17:01:21.167Z,99623.63
2022-11-02T17:03:47.989Z,99622.41
2022-11-02T17:06:17.056Z,99616.81
2022-11-02T17:08:44.624Z,99618.84
2022-11-02T17:11:15.668Z,99617.94
2022-11-02T17:13:48.821Z,99632.81
2022-11-02T17:16:15.366Z,99626.31
2022-11-02T17:18:42.068Z,99616.50
2022-11-02T17:21:29.146Z,99623.75
2022-11-02T17:23:57.846Z,99625.38
2022-11-02T17:26:45.380Z,99627.56
2022-11-02T17:29:30.869Z,99628.16
2022-11-02T17:31:58.272Z,99631.75
2022-11-02T17:34:24.989Z,99635.69
2022-11-02T17:36:53.362Z,99630.88
2022-11-02T17:39:20.833Z,99638.53
2022-11-02T17:41:53.250Z,99642.25
2022-11-02T17:44:19.763Z,99636.41
2022-11-02T17:46:46.355Z,99649.84
2022-11-02T17:49:13.098Z,99646.56
2022-11-02T17:51:39.887Z,99653.06
2022-11-02T17:54:09.628Z,99653.97
2022-11-02T17:56:36.134Z,99656.16
2022-11-02T17:59:02.770Z,99649.75
2022-11-02T18:01:29.639Z,99634.34
2022-11-02T18:03:56.325Z,99641.91
2022-11-02T18:06:22.976Z,99638.97
2022-11-02T18:08:49.693Z,99639.38
2022-11-02T18:11:19.717Z,99654.31
2022-11-02T18:13:50.002Z,99644.41
2022-11-02T18:16:16.665Z,99644.28
2022-11-02T18:18:43.176Z,99642.44
2022-11-02T18:21:11.410Z,99642.56
2022-11-02T18:23:39.151Z,99642.31
2022-11-02T18:26:06.047Z,99642.94
2022-11-02T18:28:34.033Z,99648.72
2022-11-02T18:31:00.693Z,99644.44
2022-11-02T18:33:27.199Z,99640.09
2022-11-02T18:36:01.812Z,99637.97
2022-11-02T18:38:28.330Z,99633.94
2022-11-02T18:40:54.864Z,99639.19
2022-11-02T18:43:21.361Z,99631.13
2022-11-02T18:45:49.246Z,99620.22
2022-11-02T18:48:15.741Z,99627.81
2022-11-02T18:50:42.388Z,99629.22
2022-11-02T18:53:09.952Z,99623.78
2022-11-02T18:55:37.888Z,99621.69
2022-11-02T18:58:04.794Z,99609.53
2022-11-02T19:00:31.601Z,99620.97
2022-11-02T19:02:59.494Z,99620.75
2022-11-02T19:05:26.183Z,99621.25
2022-11-02T19:07:52.716Z,99610.41
2022-11-02T19:10:19.240Z,99618.81
2022-11-02T19:12:45.751Z,99612.94
2022-11-02T19:15:12.305Z,99622.72
2022-11-02T19:17:38.989Z,99618.50
2022-11-02T19:20:08.050Z,99619.38
2022-11-02T19:22:34.716Z,99619.59
2022-11-02T19:25:01.394Z,99601.81
2022-11-02T19:27:28.127Z,99603.59
2022-11-02T19:29:54.667Z,99621.84
2022-11-02T19:32:21.186Z,99615.69
2022-11-02T19:34:47.758Z,99620.31
2022-11-02T19:37:15.625Z,99611.69
2022-11-02T19:39:42.167Z,99605.00
2022-11-02T19:42:08.660Z,99614.84
2022-11-02T19:44:41.194Z,99603.44
2022-11-02T19:47:08.930Z,99609.78
2022-11-02T19:49:35.475Z,99600.44
2022-11-02T19:52:02.003Z,99596.81
2022-11-02T19:54:30.028Z,99604.25
2022-11-02T19:56:56.546Z,99594.03
2022-11-02T19:59:23.097Z,99600.97
2022-11-02T20:01:49.662Z,99596.13
2022-11-02T20:04:16.319Z,99594.78
2022-11-02T20:06:43.974Z,99596.31
2022-11-02T20:09:14.257Z,99584.84
2022-11-02T20:11:42.293Z,99587.69
2022-11-02T20:14:08.824Z,99584.28
2022-11-02T20:16:35.313Z,99586.25
2022-11-02T20:19:02.144Z,99576.31
2022-11-02T20:21:34.458Z,99578.50
2022-11-02T20:24:02.593Z,99578.28
2022-11-02T20:26:30.969Z,99579.09
2022-11-02T20:28:59.627Z,99572.88
2022-11-02T20:31:27.557Z,99580.38
2022-11-02T20:33:54.175Z,99583.38
2022-11-02T20:36:20.791Z,99581.28
2022-11-02T20:38:47.480Z,99587.97
2022-11-02T20:41:15.901Z,99581.84
2022-11-02T20:43:44.667Z,99587.88
2022-11-02T20:46:36.579Z,99588.00
2022-11-02T20:49:08.832Z,99576.81
2022-11-02T20:51:47.879Z,99577.66
2022-11-02T20:54:14.419Z,99565.59
2022-11-02T20:56:40.950Z,99568.69
2022-11-02T20:59:07.574Z,99563.56
2022-11-02T21:01:35.577Z,99560.19
2022-11-02T21:04:02.240Z,99558.84
2022-11-02T21:06:28.776Z,99562.19
2022-11-02T21:08:55.366Z,99553.03
2022-11-02T21:11:22.107Z,99554.13
2022-11-02T21:13:48.624Z,99548.53
2022-11-02T21:16:15.512Z,99546.41
2022-11-02T21:18:43.566Z,99555.00
2022-11-02T21:21:12.015Z,99553.72
2022-11-02T21:23:41.331Z,99543.97
2022-11-02T21:26:09.404Z,99535.03
2022-11-02T21:31:10.812Z,99544.06
2022-11-02T21:33:37.842Z,99537.97
2022-11-02T21:36:06.750Z,99532.66
2022-11-02T21:38:33.473Z,99518.41
2022-11-02T21:41:00.939Z,99532.78
2022-11-02T21:43:27.955Z,99536.56
2022-11-02T21:45:56.685Z,99531.72
2022-11-02T21:48:24.747Z,99520.47
2022-11-02T21:51:02.257Z,99517.31
2022-11-02T21:53:30.631Z,99523.56
2022-11-02T21:55:58.799Z,99517.59
2022-11-02T21:58:25.379Z,99518.97
2022-11-02T22:00:56.847Z,99523.34
2022-11-02T22:03:23.425Z,99515.00
2022-11-02T22:05:49.914Z,99511.22
2022-11-02T22:08:16.578Z,99516.59
2022-11-02T22:10:44.526Z,99521.94
2022-11-02T22:13:11.034Z,99523.84
2022-11-02T22:15:38.550Z,99513.28
2022-11-02T22:18:05.376Z,99510.84
2022-11-02T22:20:31.885Z,99510.06
2022-11-02T22:22:58.553Z,99508.75
2022-11-02T22:25:25.117Z,99507.94
2022-11-02T22:27:53.068Z,99509.31
2022-11-02T22:30:19.573Z,99503.66
2022-11-02T22:32:46.106Z,99502.59
2022-11-02T22:35:12.620Z,99500.16
2022-11-02T22:37:39.174Z,99493.09
2022-11-02T22:40:06.406Z,99497.63
2022-11-02T22:42:34.912Z,99499.78
2022-11-02T22:45:06.115Z,99492.13
2022-11-02T22:47:32.636Z,99487.78
2022-11-02T22:49:59.152Z,99486.91
2022-11-02T22:52:25.826Z,99484.72
2022-11-02T22:54:52.399Z,99479.59
2022-11-02T22:57:18.918Z,99485.53
2022-11-02T22:59:45.467Z,99475.28
2022-11-02T23:02:13.404Z,99480.41
2022-11-02T23:04:40.100Z,99476.91
2022-11-02T23:07:06.704Z,99477.69
2022-11-02T23:09:33.201Z,99473.09
2022-11-02T23:11:59.862Z,99466.25
2022-11-02T23:14:26.389Z,99467.66
2022-11-02T23:16:52.932Z,99468.22
2022-11-02T23:19:26.298Z,99462.81
2022-11-02T23:21:55.430Z,99467.69
2022-11-02T23:24:22.068Z,99460.69
2022-11-02T23:26:49.684Z,99463.66
2022-11-02T23:29:16.258Z,99460.41
2022-11-02T23:31:42.746Z,99460.34
2022-11-02T23:34:09.471Z,99453.06
2022-11-02T23:36:37.377Z,99444.44
2022-11-02T23:39:04.194Z,99445.53
2022-11-02T23:41:32.269Z,99438.50
2022-11-02T23:43:59.341Z,99432.81
2022-11-02T23:46:25.862Z,99437.13
2022-11-02T23:48:53.748Z,99435.72
2022-11-02T23:51:20.438Z,99431.13
2022-11-02T23:53:48.307Z,99424.63
2022-11-02T23:56:16.223Z,99421.94
2022-11-02T23:58:43.487Z,99428.66
